Pagina principale
METAR-TAF:

METAR-TAF

Aeroporti :

Teodo, Montenegro

latitudine: 42-24N, longitudine: 018-44E, altezza: 5 m

Osservazione

Il bollettino è stato emesso 9 minuti fa, alle 09:30 UTC
Vento 6 kt da ovest/sud-ovest, variando fra sud e ovest
Temperature 25°C
Umidità 47%
Pressione 1018 hPa
Visibilità 10 km o più
nessuna nube inferiore a 1500 m e nessun cumulonembo

METAR: LYTV 290930Z 24006KT 180V280 CAVOK 25/13 Q1018 NOSIG

Ora: 11:39 (09:39 UTC)

Previsione

Il bollettino è stato emesso 4 ore e 39 minuti fa, alle 05:00 UTC
Previsione valida dal 29 alle 06 UTC al 30 alle 06 UTC
Vento 7 kt da sud-ovest
Visibilità 10 km o più
nessuna nube inferiore a 1500 m e nessun cumulonembo

TAF: LYTV 290500Z 2906/3006 22007KT CAVOK TX28/2913Z TN15/3004Z

Osservazioni e previsioni meteorologiche di più di 4000 aeroporti (messaggi METAR e TAF).

Le stazioni disponibili sono rappresentate dai dischi gialli e rossi sulla carta.

Puntare il mouse per vedere il nome della stazione.

Clicca sopra per visualizzare le osservazioni e previsioni meteorologiche.

Per cambiare la mappa : fare clic sui pulsanti verdi con una croce nera per ingrandire, il pulsante verde con un trattino per diminuire, o sulla freccia verde per le mappe adiacenti.


METAR-TAF: